createdAt,value
2023-01-26T00:00:02.627Z,30.75
2023-01-26T00:02:30.177Z,34.38
2023-01-26T00:04:57.789Z,30.60
2023-01-26T00:07:25.076Z,31.35
2023-01-26T00:09:52.396Z,32.80
2023-01-26T00:12:19.723Z,32.33
2023-01-26T00:14:53.311Z,33.13
2023-01-26T00:17:28.273Z,33.27
2023-01-26T00:19:56.489Z,33.35
2023-01-26T00:22:24.616Z,33.50
2023-01-26T00:24:51.948Z,36.00
2023-01-26T00:27:19.245Z,36.03
2023-01-26T00:29:46.784Z,34.13
2023-01-26T00:32:14.119Z,36.60
2023-01-26T00:34:42.728Z,37.35
2023-01-26T00:37:10.155Z,35.60
2023-01-26T00:39:38.375Z,32.45
2023-01-26T00:42:09.966Z,35.85
2023-01-26T00:44:39.249Z,36.85
2023-01-26T00:47:06.769Z,35.08
2023-01-26T00:49:34.245Z,33.70
2023-01-26T00:52:03.368Z,36.70
2023-01-26T00:54:30.773Z,38.90
2023-01-26T00:56:58.358Z,35.60
2023-01-26T00:59:25.810Z,73.13
2023-01-26T01:01:53.476Z,35.22
2023-01-26T01:04:21.025Z,42.88
2023-01-26T01:06:49.135Z,35.65
2023-01-26T01:09:18.469Z,34.30
2023-01-26T01:11:46.072Z,35.13
2023-01-26T01:14:14.123Z,36.10
2023-01-26T01:16:41.989Z,35.10
2023-01-26T01:19:09.832Z,33.72
2023-01-26T01:21:37.546Z,35.83
2023-01-26T01:24:05.379Z,36.35
2023-01-26T01:26:34.051Z,36.70
2023-01-26T01:29:01.676Z,42.20
2023-01-26T01:31:30.096Z,34.28
2023-01-26T01:33:57.873Z,36.08
2023-01-26T01:36:25.251Z,35.45
2023-01-26T01:38:53.029Z,42.38
2023-01-26T01:41:22.551Z,35.63
2023-01-26T01:43:51.210Z,35.40
2023-01-26T01:46:23.085Z,36.08
2023-01-26T01:48:53.474Z,35.33
2023-01-26T01:51:22.425Z,34.22
2023-01-26T01:53:52.176Z,31.83
2023-01-26T01:56:22.159Z,33.00
2023-01-26T01:58:52.679Z,27.80
2023-01-26T02:01:20.305Z,34.80
2023-01-26T02:03:49.026Z,33.03
2023-01-26T02:06:17.377Z,34.78
2023-01-26T02:08:46.045Z,34.80
2023-01-26T02:11:15.932Z,32.83
2023-01-26T02:13:44.192Z,32.13
2023-01-26T02:16:12.932Z,33.53
2023-01-26T02:18:40.698Z,34.40
2023-01-26T02:21:09.604Z,32.75
2023-01-26T02:23:41.599Z,35.05
2023-01-26T02:26:12.154Z,33.92
2023-01-26T02:28:40.056Z,33.75
2023-01-26T02:31:07.756Z,34.65
2023-01-26T02:33:35.450Z,36.15
2023-01-26T02:36:03.614Z,32.22
2023-01-26T02:38:34.815Z,35.15
2023-01-26T02:41:05.491Z,32.30
2023-01-26T02:43:33.225Z,31.35
2023-01-26T02:46:00.635Z,36.42
2023-01-26T02:48:45.779Z,35.85
2023-01-26T02:51:13.339Z,35.03
2023-01-26T02:53:40.744Z,33.00
2023-01-26T02:56:07.809Z,17.20
2023-01-26T02:58:36.448Z,21.77
2023-01-26T03:01:03.888Z,33.65
2023-01-26T03:03:42.366Z,34.03
2023-01-26T03:06:10.411Z,34.38
2023-01-26T03:08:38.059Z,32.58
2023-01-26T03:11:05.749Z,33.20
2023-01-26T03:13:33.055Z,34.50
2023-01-26T03:16:06.657Z,35.42
2023-01-26T03:18:52.466Z,31.13
2023-01-26T03:21:37.580Z,32.28
2023-01-26T03:24:23.113Z,22.60
2023-01-26T03:27:07.749Z,33.17
2023-01-26T03:29:35.460Z,33.97
2023-01-26T03:32:04.425Z,31.77
2023-01-26T03:34:35.250Z,33.70
2023-01-26T03:37:02.770Z,31.98
2023-01-26T03:39:47.753Z,31.25
2023-01-26T03:42:32.526Z,28.73
2023-01-26T03:48:04.259Z,27.95
2023-01-26T03:50:48.891Z,27.35
2023-01-26T03:53:34.507Z,29.70
2023-01-26T03:56:21.944Z,30.27
2023-01-26T03:58:50.609Z,31.83
2023-01-26T04:01:20.005Z,32.30
2023-01-26T04:04:07.554Z,30.15
2023-01-26T04:06:52.579Z,31.42
2023-01-26T04:09:22.558Z,28.15
2023-01-26T04:11:50.071Z,25.40
2023-01-26T04:14:38.203Z,27.98
2023-01-26T04:17:34.852Z,30.48
2023-01-26T04:20:20.994Z,30.33
2023-01-26T04:22:49.370Z,28.13
2023-01-26T04:25:17.607Z,31.38
2023-01-26T04:27:45.877Z,29.80
2023-01-26T04:30:14.706Z,29.45
2023-01-26T04:32:42.180Z,29.75
2023-01-26T04:35:11.237Z,31.77
2023-01-26T04:37:38.533Z,30.00
2023-01-26T04:40:06.633Z,32.03
2023-01-26T04:42:33.980Z,31.45
2023-01-26T04:45:01.320Z,31.48
2023-01-26T04:47:29.493Z,33.15
2023-01-26T04:49:57.209Z,31.65
2023-01-26T04:52:25.904Z,29.10
2023-01-26T04:54:53.204Z,32.55
2023-01-26T04:57:21.118Z,32.47
2023-01-26T04:59:48.503Z,34.58
2023-01-26T05:02:16.033Z,34.10
2023-01-26T05:04:43.506Z,39.15
2023-01-26T05:07:11.059Z,32.63
2023-01-26T05:09:39.709Z,31.25
2023-01-26T05:12:21.214Z,31.20
2023-01-26T05:14:48.629Z,30.80
2023-01-26T05:17:15.952Z,32.03
2023-01-26T05:19:43.244Z,30.33
2023-01-26T05:22:12.428Z,28.50
2023-01-26T05:24:41.216Z,28.77
2023-01-26T05:27:23.596Z,44.08
2023-01-26T05:29:51.685Z,30.27
2023-01-26T05:32:19.149Z,27.92
2023-01-26T05:34:46.516Z,29.40
2023-01-26T05:37:15.257Z,31.35
2023-01-26T05:39:44.124Z,29.33
2023-01-26T05:42:11.903Z,29.48
2023-01-26T05:44:39.620Z,28.48
2023-01-26T05:47:06.945Z,28.35
2023-01-26T05:49:34.292Z,26.45
2023-01-26T05:52:01.960Z,28.85
2023-01-26T05:54:30.005Z,30.08
2023-01-26T05:56:59.049Z,29.10
2023-01-26T05:59:26.373Z,30.70
2023-01-26T06:01:53.734Z,27.77
2023-01-26T06:04:21.292Z,27.83
2023-01-26T06:06:49.594Z,27.75
2023-01-26T06:09:17.072Z,25.73
2023-01-26T06:11:44.447Z,27.67
2023-01-26T06:14:13.142Z,26.73
2023-01-26T06:16:40.508Z,26.55
2023-01-26T06:19:07.913Z,27.15
2023-01-26T06:21:35.257Z,27.33
2023-01-26T06:24:02.815Z,26.88
2023-01-26T06:26:30.558Z,25.83
2023-01-26T06:28:58.525Z,24.20
2023-01-26T06:31:29.430Z,25.45
2023-01-26T06:33:57.256Z,26.13
2023-01-26T06:36:24.553Z,27.10
2023-01-26T06:38:54.461Z,26.63
2023-01-26T06:41:22.880Z,26.25
2023-01-26T06:43:50.208Z,27.17
2023-01-26T06:46:17.827Z,26.52
2023-01-26T06:48:46.558Z,26.67
2023-01-26T06:51:32.793Z,26.88
2023-01-26T06:54:00.056Z,25.95
2023-01-26T06:56:28.896Z,24.98
2023-01-26T06:58:56.288Z,26.20
2023-01-26T07:01:25.687Z,26.45
2023-01-26T07:03:54.867Z,25.70
2023-01-26T07:06:22.340Z,25.17
2023-01-26T07:08:49.931Z,25.80
2023-01-26T07:11:17.420Z,25.50
2023-01-26T07:13:44.797Z,24.77
2023-01-26T07:16:13.550Z,26.13
2023-01-26T07:18:41.405Z,26.00
2023-01-26T07:21:11.778Z,24.17
2023-01-26T07:23:39.295Z,24.90
2023-01-26T07:26:06.701Z,24.95
2023-01-26T07:28:35.551Z,24.45
2023-01-26T07:31:04.118Z,25.08
2023-01-26T07:33:32.074Z,24.17
2023-01-26T07:36:00.051Z,23.95
2023-01-26T07:38:30.036Z,23.65
2023-01-26T07:40:57.535Z,23.88
2023-01-26T07:43:25.755Z,22.67
2023-01-26T07:45:53.667Z,22.00
2023-01-26T07:48:21.524Z,23.48
2023-01-26T07:50:49.388Z,21.58
2023-01-26T07:53:19.118Z,22.20
2023-01-26T07:55:48.220Z,23.42
2023-01-26T07:58:15.695Z,22.33
2023-01-26T08:00:43.095Z,22.58
2023-01-26T08:03:10.433Z,23.95
2023-01-26T08:05:38.501Z,22.77
2023-01-26T08:08:06.661Z,21.10
2023-01-26T08:10:33.962Z,22.15
2023-01-26T08:13:02.756Z,23.52
2023-01-26T08:15:30.116Z,21.95
2023-01-26T08:17:57.440Z,21.30
2023-01-26T08:20:24.967Z,24.35
2023-01-26T08:22:52.487Z,23.27
2023-01-26T08:25:19.816Z,22.35
2023-01-26T08:27:47.104Z,23.10
2023-01-26T08:30:16.400Z,24.67
2023-01-26T08:32:43.731Z,24.42
2023-01-26T08:35:11.183Z,24.38
2023-01-26T08:37:38.758Z,22.88
2023-01-26T08:40:06.983Z,25.55
2023-01-26T08:42:34.476Z,25.55
2023-01-26T08:45:02.178Z,24.65
2023-01-26T08:47:30.785Z,25.58
2023-01-26T08:49:58.128Z,23.15
2023-01-26T08:52:25.492Z,25.55
2023-01-26T08:54:53.047Z,25.05
2023-01-26T08:57:20.352Z,26.02
2023-01-26T08:59:47.710Z,26.88
2023-01-26T09:02:15.093Z,28.20
2023-01-26T09:04:43.816Z,26.92
2023-01-26T09:07:13.393Z,24.80
2023-01-26T09:09:40.868Z,27.17
2023-01-26T09:12:08.202Z,27.95
2023-01-26T09:14:35.818Z,33.38
2023-01-26T09:17:03.418Z,34.50
2023-01-26T09:19:31.246Z,42.00
2023-01-26T09:22:00.008Z,31.55
2023-01-26T09:24:27.627Z,32.03
2023-01-26T09:26:55.279Z,30.15
2023-01-26T09:29:22.733Z,36.95
2023-01-26T09:31:50.139Z,33.00
2023-01-26T09:34:17.475Z,31.40
2023-01-26T09:36:44.745Z,32.88
2023-01-26T09:39:13.404Z,31.05
2023-01-26T09:41:51.966Z,32.42
2023-01-26T09:44:20.757Z,30.52
2023-01-26T09:46:55.836Z,30.80
2023-01-26T09:49:24.931Z,31.45
2023-01-26T09:51:57.583Z,32.13
2023-01-26T09:54:29.637Z,34.28
2023-01-26T09:56:57.122Z,34.03
2023-01-26T09:59:31.733Z,30.77
2023-01-26T10:04:33.509Z,32.38
2023-01-26T10:07:02.248Z,34.80
2023-01-26T10:09:34.863Z,33.45
2023-01-26T10:12:03.093Z,33.17
2023-01-26T10:14:33.364Z,37.30
2023-01-26T10:17:01.432Z,34.47
2023-01-26T10:19:34.112Z,36.20
2023-01-26T10:22:04.587Z,33.58
2023-01-26T10:24:33.929Z,33.25
2023-01-26T10:27:01.351Z,35.42
2023-01-26T10:29:28.669Z,35.17
2023-01-26T10:31:56.107Z,32.92
2023-01-26T10:34:24.378Z,38.13
2023-01-26T10:36:51.814Z,30.67
2023-01-26T10:39:19.507Z,37.33
2023-01-26T10:41:58.459Z,32.67
2023-01-26T10:44:30.662Z,28.50
2023-01-26T10:47:05.783Z,30.77
2023-01-26T10:49:33.399Z,30.45
2023-01-26T10:52:08.490Z,28.95
2023-01-26T10:54:38.028Z,32.50
2023-01-26T10:57:17.547Z,30.63
2023-01-26T10:59:50.144Z,32.45
2023-01-26T11:02:22.450Z,31.80
2023-01-26T11:05:02.495Z,30.45
2023-01-26T11:07:33.132Z,31.80
2023-01-26T11:10:17.147Z,36.50
2023-01-26T11:12:46.003Z,35.60
2023-01-26T11:15:17.070Z,29.70
2023-01-26T11:17:48.288Z,41.58
2023-01-26T11:20:28.446Z,61.83
2023-01-26T11:23:00.039Z,35.70
2023-01-26T11:25:29.030Z,37.38
2023-01-26T11:28:05.122Z,32.65
2023-01-26T11:30:53.609Z,32.03
2023-01-26T11:33:26.505Z,31.25
2023-01-26T11:35:57.445Z,34.13
2023-01-26T11:38:33.415Z,37.10
2023-01-26T11:41:04.819Z,31.65
2023-01-26T11:43:43.660Z,31.73
2023-01-26T11:46:29.400Z,29.13
2023-01-26T11:49:03.061Z,29.17
2023-01-26T11:51:36.253Z,34.03
2023-01-26T11:54:10.370Z,32.38
2023-01-26T11:56:44.682Z,29.65
2023-01-26T11:59:15.604Z,33.22
2023-01-26T12:01:44.967Z,34.55
2023-01-26T12:04:15.743Z,31.60
2023-01-26T12:06:45.457Z,32.05
2023-01-26T12:09:18.798Z,34.45
2023-01-26T12:11:49.958Z,33.25
2023-01-26T12:14:22.800Z,33.42
2023-01-26T12:17:17.289Z,35.58
2023-01-26T12:19:49.267Z,34.58
2023-01-26T12:22:19.860Z,33.88
2023-01-26T12:25:17.363Z,36.88
2023-01-26T12:27:43.599Z,34.30
2023-01-26T12:30:25.007Z,35.65
2023-01-26T12:32:52.797Z,34.25
2023-01-26T12:35:24.549Z,33.88
2023-01-26T12:38:03.069Z,31.65
2023-01-26T12:40:42.277Z,32.47
2023-01-26T12:43:16.465Z,35.42
2023-01-26T12:45:47.073Z,34.47
2023-01-26T12:48:17.731Z,31.02
2023-01-26T12:50:47.380Z,31.05
2023-01-26T12:53:17.019Z,30.65
2023-01-26T12:55:49.452Z,28.00
2023-01-26T12:58:19.265Z,30.65
2023-01-26T13:00:54.608Z,29.23
2023-01-26T13:03:24.773Z,25.50
2023-01-26T13:05:56.223Z,24.70
2023-01-26T13:08:42.064Z,24.52
2023-01-26T13:11:10.782Z,26.00
2023-01-26T13:13:53.533Z,24.27
2023-01-26T13:16:35.740Z,25.77
2023-01-26T13:19:03.453Z,24.25
2023-01-26T13:21:43.369Z,25.75
2023-01-26T13:24:29.458Z,27.00
2023-01-26T13:26:57.573Z,25.13
2023-01-26T13:29:43.127Z,23.60
2023-01-26T13:32:29.397Z,23.55
2023-01-26T13:34:59.690Z,24.55
2023-01-26T13:37:31.222Z,23.75
2023-01-26T13:40:00.675Z,23.77
2023-01-26T13:42:30.590Z,23.38
2023-01-26T13:44:59.649Z,21.05
2023-01-26T13:47:29.194Z,23.15
2023-01-26T13:49:58.763Z,21.25
2023-01-26T13:52:26.852Z,21.58
2023-01-26T13:54:55.159Z,20.10
2023-01-26T13:57:23.567Z,18.75
2023-01-26T13:59:51.617Z,18.15
2023-01-26T14:02:23.689Z,17.30
2023-01-26T14:04:55.455Z,16.83
2023-01-26T14:07:26.425Z,15.20
2023-01-26T14:09:54.984Z,16.30
2023-01-26T14:12:23.739Z,15.20
2023-01-26T14:14:51.989Z,15.30
2023-01-26T14:17:29.602Z,15.43
2023-01-26T14:19:58.156Z,17.10
2023-01-26T14:22:27.836Z,16.25
2023-01-26T14:24:55.651Z,15.32
2023-01-26T14:27:36.844Z,16.02
2023-01-26T14:30:09.094Z,15.88
2023-01-26T14:32:36.608Z,15.25
2023-01-26T14:35:04.437Z,15.27
2023-01-26T14:37:33.137Z,15.85
2023-01-26T14:40:10.992Z,15.60
2023-01-26T14:42:39.583Z,13.77
2023-01-26T14:45:09.049Z,13.50
2023-01-26T14:47:36.486Z,14.60
2023-01-26T14:50:07.481Z,14.50
2023-01-26T14:52:38.539Z,14.20
2023-01-26T14:55:07.241Z,15.75
2023-01-26T14:57:34.637Z,15.40
2023-01-26T15:00:05.745Z,16.13
2023-01-26T15:02:37.369Z,16.63
2023-01-26T15:05:10.819Z,16.30
2023-01-26T15:07:43.017Z,22.55
2023-01-26T15:10:27.826Z,21.42
2023-01-26T15:13:02.804Z,18.95
2023-01-26T15:15:31.520Z,22.88
2023-01-26T15:18:16.958Z,19.20
2023-01-26T15:20:45.805Z,18.80
2023-01-26T15:23:25.741Z,28.23
2023-01-26T15:25:53.370Z,26.45
2023-01-26T15:28:23.240Z,143.10
2023-01-26T15:30:51.656Z,88.88
2023-01-26T15:33:38.858Z,60.88
2023-01-26T15:36:06.491Z,67.22
2023-01-26T15:38:35.522Z,32.00
2023-01-26T15:41:03.160Z,30.90
2023-01-26T15:43:30.488Z,32.28
2023-01-26T15:45:58.553Z,27.92
2023-01-26T15:48:31.463Z,29.60
2023-01-26T15:50:58.778Z,27.52
2023-01-26T15:53:26.843Z,32.35
2023-01-26T15:55:56.800Z,36.83
2023-01-26T15:58:24.468Z,34.53
2023-01-26T16:00:52.294Z,29.75
2023-01-26T16:03:20.433Z,33.42
2023-01-26T16:05:49.073Z,32.72
2023-01-26T16:08:17.251Z,36.88
2023-01-26T16:10:48.036Z,36.05
2023-01-26T16:13:18.613Z,38.88
2023-01-26T16:15:47.222Z,39.08
2023-01-26T16:18:14.581Z,38.92
2023-01-26T16:20:43.274Z,41.00
2023-01-26T16:23:16.612Z,42.30
2023-01-26T16:25:43.955Z,44.00
2023-01-26T16:28:11.494Z,44.80
2023-01-26T16:30:40.287Z,47.33
2023-01-26T16:33:07.608Z,50.20
2023-01-26T16:35:35.657Z,50.97
2023-01-26T16:38:05.045Z,53.33
2023-01-26T16:40:32.382Z,63.67
2023-01-26T16:43:02.077Z,56.55
2023-01-26T16:45:29.555Z,57.10
2023-01-26T16:47:59.655Z,60.97
2023-01-26T16:50:27.446Z,61.90
2023-01-26T16:52:55.068Z,53.97
2023-01-26T16:55:23.297Z,56.55
2023-01-26T16:57:50.619Z,70.28
2023-01-26T17:00:19.776Z,79.10
2023-01-26T17:02:48.688Z,138.40
2023-01-26T17:05:18.505Z,58.15
2023-01-26T17:07:46.411Z,98.07
2023-01-26T17:10:15.155Z,69.90
2023-01-26T17:12:42.427Z,57.47
2023-01-26T17:15:11.632Z,72.38
2023-01-26T17:17:39.210Z,69.68
2023-01-26T17:20:18.468Z,86.70
2023-01-26T17:22:48.393Z,61.28
2023-01-26T17:25:17.044Z,84.88
2023-01-26T17:27:45.257Z,82.47
2023-01-26T17:30:12.936Z,161.95
2023-01-26T17:32:40.463Z,187.10
2023-01-26T17:35:08.091Z,107.55
2023-01-26T17:37:35.662Z,77.05
2023-01-26T17:40:04.816Z,185.05
2023-01-26T17:42:33.741Z,229.88
2023-01-26T17:45:01.751Z,51.03
2023-01-26T17:47:29.104Z,58.55
2023-01-26T17:49:56.398Z,67.55
2023-01-26T17:52:23.968Z,73.80
2023-01-26T17:54:51.393Z,55.13
2023-01-26T17:57:20.058Z,68.03
2023-01-26T17:59:48.569Z,65.78
2023-01-26T18:02:16.859Z,57.30
2023-01-26T18:04:44.402Z,59.88
2023-01-26T18:07:11.680Z,53.75
2023-01-26T18:09:39.021Z,51.85
2023-01-26T18:12:07.004Z,70.40
2023-01-26T18:14:35.684Z,68.00
2023-01-26T18:17:03.022Z,63.30
2023-01-26T18:19:30.398Z,55.55
2023-01-26T18:21:57.979Z,60.28
2023-01-26T18:24:25.424Z,61.30
2023-01-26T18:26:52.997Z,62.92
2023-01-26T18:29:20.281Z,76.30
2023-01-26T18:31:48.964Z,73.50
2023-01-26T18:34:16.435Z,60.45
2023-01-26T18:36:44.053Z,64.60
2023-01-26T18:39:12.961Z,64.35
2023-01-26T18:41:43.073Z,65.50
2023-01-26T18:44:10.440Z,65.05
2023-01-26T18:46:37.730Z,61.67
2023-01-26T18:49:06.475Z,62.92
2023-01-26T18:51:34.728Z,62.25
2023-01-26T18:54:03.835Z,60.25
2023-01-26T18:56:32.106Z,56.22
2023-01-26T18:58:59.955Z,60.58
2023-01-26T19:01:27.400Z,59.58
2023-01-26T19:03:58.768Z,53.70
2023-01-26T19:06:28.238Z,56.17
2023-01-26T19:08:58.312Z,55.50
2023-01-26T19:11:34.534Z,52.83
2023-01-26T19:14:02.426Z,53.15
2023-01-26T19:16:30.007Z,54.00
2023-01-26T19:18:57.384Z,55.13
2023-01-26T19:21:25.680Z,55.40
2023-01-26T19:23:55.163Z,55.85
2023-01-26T19:26:23.329Z,53.17
2023-01-26T19:28:51.063Z,51.97
2023-01-26T19:31:19.392Z,50.88
2023-01-26T19:33:50.707Z,52.90
2023-01-26T19:36:18.273Z,51.40
2023-01-26T19:38:45.893Z,49.72
2023-01-26T19:41:14.997Z,49.63
2023-01-26T19:43:44.174Z,50.08
2023-01-26T19:46:12.648Z,52.28
2023-01-26T19:48:40.101Z,53.20
2023-01-26T19:51:08.454Z,53.53
2023-01-26T19:53:37.218Z,52.25
2023-01-26T19:56:08.033Z,53.33
2023-01-26T19:58:37.075Z,86.70
2023-01-26T20:01:05.741Z,55.95
2023-01-26T20:03:33.744Z,61.38
2023-01-26T20:06:01.289Z,53.05
2023-01-26T20:08:29.584Z,73.68
2023-01-26T20:11:02.660Z,47.72
2023-01-26T20:13:29.956Z,97.00
2023-01-26T20:15:58.907Z,83.55
2023-01-26T20:18:26.837Z,66.20
2023-01-26T20:20:55.933Z,50.40
2023-01-26T20:23:23.598Z,59.28
2023-01-26T20:25:52.069Z,64.68
2023-01-26T20:28:19.966Z,270.02
2023-01-26T20:30:47.459Z,171.88
2023-01-26T20:33:17.022Z,78.95
2023-01-26T20:35:44.514Z,55.13
2023-01-26T20:38:12.000Z,46.97
2023-01-26T20:40:39.633Z,54.75
2023-01-26T20:43:07.690Z,49.95
2023-01-26T20:45:38.114Z,45.53
2023-01-26T20:48:05.598Z,64.25
2023-01-26T20:50:40.047Z,57.20
2023-01-26T20:53:07.417Z,106.55
2023-01-26T20:55:35.045Z,59.97
2023-01-26T20:58:02.488Z,45.35
2023-01-26T21:00:30.573Z,43.63
2023-01-26T21:03:00.391Z,49.00
2023-01-26T21:05:27.840Z,41.20
2023-01-26T21:07:59.761Z,44.72
2023-01-26T21:10:27.108Z,54.38
2023-01-26T21:12:55.138Z,56.65
2023-01-26T21:15:26.917Z,58.25
2023-01-26T21:17:54.199Z,142.50
2023-01-26T21:20:23.676Z,51.03
2023-01-26T21:22:55.046Z,37.17
2023-01-26T21:25:31.246Z,35.25
2023-01-26T21:27:58.717Z,46.53
2023-01-26T21:30:26.203Z,39.72
2023-01-26T21:32:54.375Z,36.78
2023-01-26T21:35:21.728Z,40.03
2023-01-26T21:37:49.735Z,50.50
2023-01-26T21:40:17.377Z,49.88
2023-01-26T21:42:46.036Z,76.78
2023-01-26T21:45:30.924Z,58.45
2023-01-26T21:48:16.073Z,109.63
2023-01-26T21:51:00.836Z,48.00
2023-01-26T21:53:28.529Z,57.40
2023-01-26T21:55:56.129Z,57.20
2023-01-26T21:58:43.277Z,43.72
2023-01-26T22:01:11.297Z,59.38
2023-01-26T22:03:39.027Z,36.42
2023-01-26T22:06:06.677Z,60.33
2023-01-26T22:08:34.393Z,40.88
2023-01-26T22:11:02.060Z,33.10
2023-01-26T22:13:31.565Z,30.60
2023-01-26T22:16:01.039Z,33.35
2023-01-26T22:18:30.511Z,35.95
2023-01-26T22:20:57.872Z,45.13
2023-01-26T22:23:25.492Z,37.97
2023-01-26T22:25:52.882Z,35.95
2023-01-26T22:28:20.242Z,36.25
2023-01-26T22:30:49.223Z,44.95
2023-01-26T22:33:16.587Z,40.20
2023-01-26T22:35:45.889Z,30.58
2023-01-26T22:38:13.214Z,36.00
2023-01-26T22:40:40.800Z,37.80
2023-01-26T22:43:08.790Z,40.83
2023-01-26T22:45:36.431Z,35.17
2023-01-26T22:48:06.798Z,26.00
2023-01-26T22:50:34.094Z,26.25
2023-01-26T22:53:01.408Z,27.40
2023-01-26T22:55:28.767Z,25.05
2023-01-26T22:57:56.103Z,25.10
2023-01-26T23:00:23.629Z,29.08
2023-01-26T23:02:50.993Z,25.30
2023-01-26T23:05:19.994Z,22.80
2023-01-26T23:07:47.337Z,24.25
2023-01-26T23:10:14.814Z,21.73
2023-01-26T23:12:42.206Z,21.30
2023-01-26T23:15:10.121Z,20.98
2023-01-26T23:17:37.668Z,20.25
2023-01-26T23:20:05.664Z,19.40
2023-01-26T23:22:34.310Z,17.38
2023-01-26T23:25:19.321Z,20.42
2023-01-26T23:27:46.651Z,19.73
2023-01-26T23:30:14.846Z,18.45
2023-01-26T23:32:42.321Z,17.60
2023-01-26T23:35:09.897Z,17.80
2023-01-26T23:37:38.822Z,18.38
2023-01-26T23:40:06.884Z,17.05
2023-01-26T23:42:45.256Z,16.90
2023-01-26T23:45:21.537Z,17.27
2023-01-26T23:47:48.896Z,17.80
2023-01-26T23:50:16.443Z,16.40
2023-01-26T23:52:45.101Z,17.88
2023-01-26T23:55:12.474Z,18.58
2023-01-26T23:57:40.050Z,18.05
